sensor_id;sensor_type;location;lat;lon;timestamp;temperature;humidity
55004;DHT22;40900;52.710;6.438;2023-02-26T00:00:09;1.50;99.90
55004;DHT22;40900;52.710;6.438;2023-02-26T00:02:40;1.60;99.90
55004;DHT22;40900;52.710;6.438;2023-02-26T00:05:06;1.60;99.90
55004;DHT22;40900;52.710;6.438;2023-02-26T00:07:33;1.60;99.90
55004;DHT22;40900;52.710;6.438;2023-02-26T00:09:58;1.60;99.90
55004;DHT22;40900;52.710;6.438;2023-02-26T00:12:26;1.60;99.90
55004;DHT22;40900;52.710;6.438;2023-02-26T00:14:52;1.60;99.90
55004;DHT22;40900;52.710;6.438;2023-02-26T00:20:21;1.50;99.90
55004;DHT22;40900;52.710;6.438;2023-02-26T00:22:47;1.60;99.90
55004;DHT22;40900;52.710;6.438;2023-02-26T00:25:13;1.60;99.90
55004;DHT22;40900;52.710;6.438;2023-02-26T00:27:40;1.50;99.90
55004;DHT22;40900;52.710;6.438;2023-02-26T00:30:07;1.50;99.90
55004;DHT22;40900;52.710;6.438;2023-02-26T00:32:34;1.50;99.90
55004;DHT22;40900;52.710;6.438;2023-02-26T00:35:00;1.50;99.90
55004;DHT22;40900;52.710;6.438;2023-02-26T00:37:50;1.50;99.90
55004;DHT22;40900;52.710;6.438;2023-02-26T00:42:55;1.50;99.90
55004;DHT22;40900;52.710;6.438;2023-02-26T00:45:21;1.40;99.90
55004;DHT22;40900;52.710;6.438;2023-02-26T00:47:48;1.40;99.90
55004;DHT22;40900;52.710;6.438;2023-02-26T00:50:20;1.40;99.90
55004;DHT22;40900;52.710;6.438;2023-02-26T00:55:39;1.40;99.90
55004;DHT22;40900;52.710;6.438;2023-02-26T00:58:04;1.40;99.90
55004;DHT22;40900;52.710;6.438;2023-02-26T01:00:30;1.50;99.90
55004;DHT22;40900;52.710;6.438;2023-02-26T01:02:56;1.40;99.90
55004;DHT22;40900;52.710;6.438;2023-02-26T01:05:22;1.40;99.90
55004;DHT22;40900;52.710;6.438;2023-02-26T01:10:29;1.30;99.90
55004;DHT22;40900;52.710;6.438;2023-02-26T01:12:55;1.30;99.90
55004;DHT22;40900;52.710;6.438;2023-02-26T01:15:25;1.30;99.90
55004;DHT22;40900;52.710;6.438;2023-02-26T01:20:27;1.30;99.90
55004;DHT22;40900;52.710;6.438;2023-02-26T01:23:05;1.30;99.90
55004;DHT22;40900;52.710;6.438;2023-02-26T01:28:14;1.20;99.90
55004;DHT22;40900;52.710;6.438;2023-02-26T01:30:41;1.20;99.90
55004;DHT22;40900;52.710;6.438;2023-02-26T01:33:13;1.20;99.90
55004;DHT22;40900;52.710;6.438;2023-02-26T01:36:12;1.20;99.90
55004;DHT22;40900;52.710;6.438;2023-02-26T01:38:44;1.10;99.90
55004;DHT22;40900;52.710;6.438;2023-02-26T01:49:04;1.00;99.90
55004;DHT22;40900;52.710;6.438;2023-02-26T01:51:53;1.10;99.90
55004;DHT22;40900;52.710;6.438;2023-02-26T01:54:38;1.00;99.90
55004;DHT22;40900;52.710;6.438;2023-02-26T01:57:10;0.90;99.90
55004;DHT22;40900;52.710;6.438;2023-02-26T01:59:46;0.80;99.90
55004;DHT22;40900;52.710;6.438;2023-02-26T02:02:16;0.80;99.90
55004;DHT22;40900;52.710;6.438;2023-02-26T02:04:43;0.70;99.90
55004;DHT22;40900;52.710;6.438;2023-02-26T02:07:09;0.70;99.90
55004;DHT22;40900;52.710;6.438;2023-02-26T02:09:35;0.70;99.90
55004;DHT22;40900;52.710;6.438;2023-02-26T02:15:13;0.70;99.90
55004;DHT22;40900;52.710;6.438;2023-02-26T02:20:55;0.60;99.90
55004;DHT22;40900;52.710;6.438;2023-02-26T02:23:46;0.60;99.90
55004;DHT22;40900;52.710;6.438;2023-02-26T02:32:10;0.60;99.90
55004;DHT22;40900;52.710;6.438;2023-02-26T02:34:45;0.60;99.90
55004;DHT22;40900;52.710;6.438;2023-02-26T02:40:32;0.50;99.90
55004;DHT22;40900;52.710;6.438;2023-02-26T02:43:15;0.50;99.90
55004;DHT22;40900;52.710;6.438;2023-02-26T02:48:23;0.60;99.90
55004;DHT22;40900;52.710;6.438;2023-02-26T02:51:09;0.50;99.90
55004;DHT22;40900;52.710;6.438;2023-02-26T02:56:20;0.50;99.90
55004;DHT22;40900;52.710;6.438;2023-02-26T03:01:31;0.50;99.90
55004;DHT22;40900;52.710;6.438;2023-02-26T03:04:04;0.50;99.90
55004;DHT22;40900;52.710;6.438;2023-02-26T03:06:31;0.50;99.90
55004;DHT22;40900;52.710;6.438;2023-02-26T03:08:59;0.40;99.90
55004;DHT22;40900;52.710;6.438;2023-02-26T03:11:25;0.40;99.90
55004;DHT22;40900;52.710;6.438;2023-02-26T03:13:51;0.40;99.90
55004;DHT22;40900;52.710;6.438;2023-02-26T03:17:18;0.40;99.90
55004;DHT22;40900;52.710;6.438;2023-02-26T03:24:42;0.40;99.90
55004;DHT22;40900;52.710;6.438;2023-02-26T03:29:45;0.40;99.90
55004;DHT22;40900;52.710;6.438;2023-02-26T03:32:25;0.40;99.90
55004;DHT22;40900;52.710;6.438;2023-02-26T03:35:00;0.40;99.90
55004;DHT22;40900;52.710;6.438;2023-02-26T03:40:11;0.30;99.90
55004;DHT22;40900;52.710;6.438;2023-02-26T03:42:46;0.40;99.90
55004;DHT22;40900;52.710;6.438;2023-02-26T03:45:17;0.30;99.90
55004;DHT22;40900;52.710;6.438;2023-02-26T03:47:48;0.30;99.90
55004;DHT22;40900;52.710;6.438;2023-02-26T03:50:55;0.20;99.90
55004;DHT22;40900;52.710;6.438;2023-02-26T03:53:17;0.30;99.90
55004;DHT22;40900;52.710;6.438;2023-02-26T03:55:48;0.30;99.90
55004;DHT22;40900;52.710;6.438;2023-02-26T03:58:16;0.20;99.90
55004;DHT22;40900;52.710;6.438;2023-02-26T04:00:43;0.20;99.90
55004;DHT22;40900;52.710;6.438;2023-02-26T04:03:35;0.20;99.90
55004;DHT22;40900;52.710;6.438;2023-02-26T04:06:03;0.20;99.90
55004;DHT22;40900;52.710;6.438;2023-02-26T04:08:30;0.20;99.90
55004;DHT22;40900;52.710;6.438;2023-02-26T04:10:58;0.20;99.90
55004;DHT22;40900;52.710;6.438;2023-02-26T04:13:25;0.20;99.90
55004;DHT22;40900;52.710;6.438;2023-02-26T04:15:51;0.20;99.90
55004;DHT22;40900;52.710;6.438;2023-02-26T04:18:16;0.20;99.90
55004;DHT22;40900;52.710;6.438;2023-02-26T04:20:42;0.10;99.90
55004;DHT22;40900;52.710;6.438;2023-02-26T04:23:08;0.20;99.90
55004;DHT22;40900;52.710;6.438;2023-02-26T04:25:33;0.10;99.90
55004;DHT22;40900;52.710;6.438;2023-02-26T04:27:59;0.10;99.90
55004;DHT22;40900;52.710;6.438;2023-02-26T04:30:25;0.10;99.90
55004;DHT22;40900;52.710;6.438;2023-02-26T04:32:51;0.10;99.90
55004;DHT22;40900;52.710;6.438;2023-02-26T04:35:16;0.10;99.90
55004;DHT22;40900;52.710;6.438;2023-02-26T04:37:42;0.00;99.90
55004;DHT22;40900;52.710;6.438;2023-02-26T04:40:10;0.00;99.90
55004;DHT22;40900;52.710;6.438;2023-02-26T04:42:36;0.00;99.90
55004;DHT22;40900;52.710;6.438;2023-02-26T04:45:01;0.00;99.90
55004;DHT22;40900;52.710;6.438;2023-02-26T04:47:27;0.00;99.90
55004;DHT22;40900;52.710;6.438;2023-02-26T04:49:53;0.00;99.90
55004;DHT22;40900;52.710;6.438;2023-02-26T04:52:19;0.00;99.90
55004;DHT22;40900;52.710;6.438;2023-02-26T04:54:44;0.00;99.90
55004;DHT22;40900;52.710;6.438;2023-02-26T04:57:10;0.00;99.90
55004;DHT22;40900;52.710;6.438;2023-02-26T04:59:36;-0.10;99.90
55004;DHT22;40900;52.710;6.438;2023-02-26T05:02:03;-0.10;99.90
55004;DHT22;40900;52.710;6.438;2023-02-26T05:04:29;-0.10;99.90
55004;DHT22;40900;52.710;6.438;2023-02-26T05:06:55;-0.10;99.90
55004;DHT22;40900;52.710;6.438;2023-02-26T05:09:21;-0.10;99.90
55004;DHT22;40900;52.710;6.438;2023-02-26T05:11:47;-0.10;99.90
55004;DHT22;40900;52.710;6.438;2023-02-26T05:14:14;-0.10;99.90
55004;DHT22;40900;52.710;6.438;2023-02-26T05:16:40;-0.10;99.90
55004;DHT22;40900;52.710;6.438;2023-02-26T05:19:05;-0.10;99.90
55004;DHT22;40900;52.710;6.438;2023-02-26T05:21:31;-0.20;99.90
55004;DHT22;40900;52.710;6.438;2023-02-26T05:23:57;-0.20;99.90
55004;DHT22;40900;52.710;6.438;2023-02-26T05:26:23;-0.20;99.90
55004;DHT22;40900;52.710;6.438;2023-02-26T05:28:48;-0.10;99.90
55004;DHT22;40900;52.710;6.438;2023-02-26T05:31:14;-0.20;99.90
55004;DHT22;40900;52.710;6.438;2023-02-26T05:33:40;-0.20;99.90
55004;DHT22;40900;52.710;6.438;2023-02-26T05:36:07;-0.20;99.90
55004;DHT22;40900;52.710;6.438;2023-02-26T05:38:34;-0.20;99.90
55004;DHT22;40900;52.710;6.438;2023-02-26T05:41:00;-0.30;99.90
55004;DHT22;40900;52.710;6.438;2023-02-26T05:43:26;-0.30;99.90
55004;DHT22;40900;52.710;6.438;2023-02-26T05:45:52;-0.30;99.90
55004;DHT22;40900;52.710;6.438;2023-02-26T05:48:18;-0.30;99.90
55004;DHT22;40900;52.710;6.438;2023-02-26T05:50:44;-0.30;99.90
55004;DHT22;40900;52.710;6.438;2023-02-26T05:53:09;-0.20;99.90
55004;DHT22;40900;52.710;6.438;2023-02-26T05:55:35;-0.30;99.90
55004;DHT22;40900;52.710;6.438;2023-02-26T05:58:01;-0.30;99.90
55004;DHT22;40900;52.710;6.438;2023-02-26T06:00:27;-0.40;99.90
55004;DHT22;40900;52.710;6.438;2023-02-26T06:02:52;-0.40;99.90
55004;DHT22;40900;52.710;6.438;2023-02-26T06:05:18;-0.40;99.90
55004;DHT22;40900;52.710;6.438;2023-02-26T06:07:44;-0.40;99.90
55004;DHT22;40900;52.710;6.438;2023-02-26T06:10:11;-0.40;99.90
55004;DHT22;40900;52.710;6.438;2023-02-26T06:12:37;-0.40;99.90
55004;DHT22;40900;52.710;6.438;2023-02-26T06:15:03;-0.40;99.90
55004;DHT22;40900;52.710;6.438;2023-02-26T06:17:29;-0.40;99.90
55004;DHT22;40900;52.710;6.438;2023-02-26T06:19:55;-0.40;99.90
55004;DHT22;40900;52.710;6.438;2023-02-26T06:22:21;-0.50;99.90
55004;DHT22;40900;52.710;6.438;2023-02-26T06:24:46;-0.50;99.90
55004;DHT22;40900;52.710;6.438;2023-02-26T06:27:12;-0.50;99.90
55004;DHT22;40900;52.710;6.438;2023-02-26T06:29:38;-0.50;99.90
55004;DHT22;40900;52.710;6.438;2023-02-26T06:32:04;-0.50;99.90
55004;DHT22;40900;52.710;6.438;2023-02-26T06:34:30;-0.50;99.90
55004;DHT22;40900;52.710;6.438;2023-02-26T06:36:56;-0.50;99.90
55004;DHT22;40900;52.710;6.438;2023-02-26T06:39:22;-0.50;99.90
55004;DHT22;40900;52.710;6.438;2023-02-26T06:41:48;-0.50;99.90
55004;DHT22;40900;52.710;6.438;2023-02-26T06:44:14;-0.50;99.90
55004;DHT22;40900;52.710;6.438;2023-02-26T06:46:39;-0.40;99.90
55004;DHT22;40900;52.710;6.438;2023-02-26T06:49:05;-0.40;99.90
55004;DHT22;40900;52.710;6.438;2023-02-26T06:51:32;-0.40;99.90
55004;DHT22;40900;52.710;6.438;2023-02-26T06:53:58;-0.30;99.90
55004;DHT22;40900;52.710;6.438;2023-02-26T06:56:24;-0.30;99.90
55004;DHT22;40900;52.710;6.438;2023-02-26T06:58:49;-0.40;99.90
55004;DHT22;40900;52.710;6.438;2023-02-26T07:01:15;-0.40;99.90
55004;DHT22;40900;52.710;6.438;2023-02-26T07:03:41;-0.30;99.90
55004;DHT22;40900;52.710;6.438;2023-02-26T07:06:09;-0.30;99.90
55004;DHT22;40900;52.710;6.438;2023-02-26T07:08:35;-0.20;99.90
55004;DHT22;40900;52.710;6.438;2023-02-26T07:11:01;-0.30;99.90
55004;DHT22;40900;52.710;6.438;2023-02-26T07:13:27;-0.10;99.90
55004;DHT22;40900;52.710;6.438;2023-02-26T07:15:53;0.10;99.90
55004;DHT22;40900;52.710;6.438;2023-02-26T07:18:19;0.30;99.90
55004;DHT22;40900;52.710;6.438;2023-02-26T07:20:44;0.60;99.90
55004;DHT22;40900;52.710;6.438;2023-02-26T07:23:13;0.90;99.90
55004;DHT22;40900;52.710;6.438;2023-02-26T07:25:38;1.10;99.90
55004;DHT22;40900;52.710;6.438;2023-02-26T07:28:04;1.30;99.90
55004;DHT22;40900;52.710;6.438;2023-02-26T07:30:30;1.50;99.90
55004;DHT22;40900;52.710;6.438;2023-02-26T07:32:56;1.70;99.90
55004;DHT22;40900;52.710;6.438;2023-02-26T07:35:22;1.80;99.90
55004;DHT22;40900;52.710;6.438;2023-02-26T07:37:48;2.20;99.90
55004;DHT22;40900;52.710;6.438;2023-02-26T07:40:14;2.80;99.90
55004;DHT22;40900;52.710;6.438;2023-02-26T07:42:40;3.90;99.90
55004;DHT22;40900;52.710;6.438;2023-02-26T07:45:06;5.00;99.90
55004;DHT22;40900;52.710;6.438;2023-02-26T07:47:33;6.20;99.90
55004;DHT22;40900;52.710;6.438;2023-02-26T07:49:59;7.00;99.90
55004;DHT22;40900;52.710;6.438;2023-02-26T07:52:25;7.50;99.90
55004;DHT22;40900;52.710;6.438;2023-02-26T07:54:51;8.00;99.90
55004;DHT22;40900;52.710;6.438;2023-02-26T07:57:17;8.70;99.90
55004;DHT22;40900;52.710;6.438;2023-02-26T07:59:43;8.80;99.90
55004;DHT22;40900;52.710;6.438;2023-02-26T08:02:10;9.50;99.90
55004;DHT22;40900;52.710;6.438;2023-02-26T08:04:36;9.60;99.20
55004;DHT22;40900;52.710;6.438;2023-02-26T08:07:02;9.30;98.90
55004;DHT22;40900;52.710;6.438;2023-02-26T08:09:27;8.90;98.40
55004;DHT22;40900;52.710;6.438;2023-02-26T08:11:53;8.60;98.70
55004;DHT22;40900;52.710;6.438;2023-02-26T08:14:19;8.40;99.00
55004;DHT22;40900;52.710;6.438;2023-02-26T08:16:44;8.10;98.40
55004;DHT22;40900;52.710;6.438;2023-02-26T08:19:10;7.80;98.90
55004;DHT22;40900;52.710;6.438;2023-02-26T08:21:36;7.50;99.50
55004;DHT22;40900;52.710;6.438;2023-02-26T08:24:02;7.40;99.40
55004;DHT22;40900;52.710;6.438;2023-02-26T08:26:28;7.00;99.50
55004;DHT22;40900;52.710;6.438;2023-02-26T08:28:53;6.90;99.50
55004;DHT22;40900;52.710;6.438;2023-02-26T08:31:19;6.90;99.20
55004;DHT22;40900;52.710;6.438;2023-02-26T08:33:45;6.40;99.60
55004;DHT22;40900;52.710;6.438;2023-02-26T08:36:11;6.20;99.90
55004;DHT22;40900;52.710;6.438;2023-02-26T08:38:37;5.70;99.90
55004;DHT22;40900;52.710;6.438;2023-02-26T08:41:04;5.60;99.90
55004;DHT22;40900;52.710;6.438;2023-02-26T08:43:29;5.60;99.90
55004;DHT22;40900;52.710;6.438;2023-02-26T08:45:56;5.60;99.90
55004;DHT22;40900;52.710;6.438;2023-02-26T08:48:23;5.40;99.90
55004;DHT22;40900;52.710;6.438;2023-02-26T08:50:49;5.30;99.90
55004;DHT22;40900;52.710;6.438;2023-02-26T08:53:15;5.20;99.90
55004;DHT22;40900;52.710;6.438;2023-02-26T08:55:41;5.00;99.90
55004;DHT22;40900;52.710;6.438;2023-02-26T08:58:09;5.00;99.90
55004;DHT22;40900;52.710;6.438;2023-02-26T09:00:35;5.10;99.90
55004;DHT22;40900;52.710;6.438;2023-02-26T09:03:02;5.20;99.90
55004;DHT22;40900;52.710;6.438;2023-02-26T09:05:27;5.60;99.90
55004;DHT22;40900;52.710;6.438;2023-02-26T09:07:53;5.90;99.90
55004;DHT22;40900;52.710;6.438;2023-02-26T09:10:19;6.40;99.90
55004;DHT22;40900;52.710;6.438;2023-02-26T09:12:45;6.90;99.90
55004;DHT22;40900;52.710;6.438;2023-02-26T09:15:11;7.30;99.90
55004;DHT22;40900;52.710;6.438;2023-02-26T09:17:39;7.60;99.90
55004;DHT22;40900;52.710;6.438;2023-02-26T09:20:05;8.30;99.90
55004;DHT22;40900;52.710;6.438;2023-02-26T09:22:31;8.90;98.00
55004;DHT22;40900;52.710;6.438;2023-02-26T09:24:57;9.70;97.10
55004;DHT22;40900;52.710;6.438;2023-02-26T09:27:22;10.60;95.70
55004;DHT22;40900;52.710;6.438;2023-02-26T09:29:49;11.40;93.80
55004;DHT22;40900;52.710;6.438;2023-02-26T09:32:15;11.30;93.50
55004;DHT22;40900;52.710;6.438;2023-02-26T09:34:40;12.20;92.80
55004;DHT22;40900;52.710;6.438;2023-02-26T09:37:08;12.50;93.30
55004;DHT22;40900;52.710;6.438;2023-02-26T09:39:34;12.90;97.00
55004;DHT22;40900;52.710;6.438;2023-02-26T09:44:55;13.90;90.40
55004;DHT22;40900;52.710;6.438;2023-02-26T09:47:42;14.20;90.30
55004;DHT22;40900;52.710;6.438;2023-02-26T09:50:37;14.00;88.50
55004;DHT22;40900;52.710;6.438;2023-02-26T09:55:51;14.90;87.00
55004;DHT22;40900;52.710;6.438;2023-02-26T09:58:31;14.30;86.80
55004;DHT22;40900;52.710;6.438;2023-02-26T10:11:57;14.50;83.70
55004;DHT22;40900;52.710;6.438;2023-02-26T10:17:19;14.50;83.70
55004;DHT22;40900;52.710;6.438;2023-02-26T10:19:49;14.80;82.10
55004;DHT22;40900;52.710;6.438;2023-02-26T10:22:26;14.60;83.30
55004;DHT22;40900;52.710;6.438;2023-02-26T10:25:20;14.40;83.50
55004;DHT22;40900;52.710;6.438;2023-02-26T10:30:43;14.40;82.10
55004;DHT22;40900;52.710;6.438;2023-02-26T10:33:20;14.00;83.00
55004;DHT22;40900;52.710;6.438;2023-02-26T10:36:07;14.10;84.10
55004;DHT22;40900;52.710;6.438;2023-02-26T10:38:34;14.90;82.80
55004;DHT22;40900;52.710;6.438;2023-02-26T10:41:07;14.90;81.30
55004;DHT22;40900;52.710;6.438;2023-02-26T10:43:41;14.90;81.20
55004;DHT22;40900;52.710;6.438;2023-02-26T10:51:36;14.90;81.50
55004;DHT22;40900;52.710;6.438;2023-02-26T10:54:19;14.50;79.60
55004;DHT22;40900;52.710;6.438;2023-02-26T10:56:46;14.30;81.00
55004;DHT22;40900;52.710;6.438;2023-02-26T10:59:12;14.70;81.80
55004;DHT22;40900;52.710;6.438;2023-02-26T11:01:37;15.00;80.60
55004;DHT22;40900;52.710;6.438;2023-02-26T11:04:07;14.90;80.30
55004;DHT22;40900;52.710;6.438;2023-02-26T11:06:55;14.90;80.90
55004;DHT22;40900;52.710;6.438;2023-02-26T11:09:30;15.60;80.50
55004;DHT22;40900;52.710;6.438;2023-02-26T11:12:04;16.00;80.50
55004;DHT22;40900;52.710;6.438;2023-02-26T11:14:32;16.20;79.40
55004;DHT22;40900;52.710;6.438;2023-02-26T11:17:01;16.60;80.60
55004;DHT22;40900;52.710;6.438;2023-02-26T11:19:32;16.70;77.10
55004;DHT22;40900;52.710;6.438;2023-02-26T11:21:59;16.00;77.10
55004;DHT22;40900;52.710;6.438;2023-02-26T11:24:41;15.80;78.10
55004;DHT22;40900;52.710;6.438;2023-02-26T11:27:30;15.20;77.90
55004;DHT22;40900;52.710;6.438;2023-02-26T11:29:59;14.80;78.40
55004;DHT22;40900;52.710;6.438;2023-02-26T11:32:35;14.20;78.70
55004;DHT22;40900;52.710;6.438;2023-02-26T11:35:01;14.80;79.70
55004;DHT22;40900;52.710;6.438;2023-02-26T11:37:34;14.40;79.20
55004;DHT22;40900;52.710;6.438;2023-02-26T11:40:21;13.20;80.60
55004;DHT22;40900;52.710;6.438;2023-02-26T11:42:55;12.70;82.60
55004;DHT22;40900;52.710;6.438;2023-02-26T11:45:22;11.60;83.10
55004;DHT22;40900;52.710;6.438;2023-02-26T11:47:58;10.80;83.20
55004;DHT22;40900;52.710;6.438;2023-02-26T11:50:27;10.40;86.20
55004;DHT22;40900;52.710;6.438;2023-02-26T11:52:56;10.10;86.60
55004;DHT22;40900;52.710;6.438;2023-02-26T11:55:31;9.90;87.20
55004;DHT22;40900;52.710;6.438;2023-02-26T11:57:57;9.60;88.00
55004;DHT22;40900;52.710;6.438;2023-02-26T12:00:36;9.50;88.10
55004;DHT22;40900;52.710;6.438;2023-02-26T12:03:06;9.00;89.80
55004;DHT22;40900;52.710;6.438;2023-02-26T12:05:33;9.10;91.00
55004;DHT22;40900;52.710;6.438;2023-02-26T12:08:02;8.90;90.10
55004;DHT22;40900;52.710;6.438;2023-02-26T12:10:54;8.80;91.50
55004;DHT22;40900;52.710;6.438;2023-02-26T12:37:57;9.20;90.80
55004;DHT22;40900;52.710;6.438;2023-02-26T12:43:03;9.40;90.80
55004;DHT22;40900;52.710;6.438;2023-02-26T12:48:43;9.50;91.10
55004;DHT22;40900;52.710;6.438;2023-02-26T12:54:45;9.50;90.70
55004;DHT22;40900;52.710;6.438;2023-02-26T12:57:42;9.50;90.00
55004;DHT22;40900;52.710;6.438;2023-02-26T13:06:28;9.40;90.80
55004;DHT22;40900;52.710;6.438;2023-02-26T13:14:42;9.30;90.50
55004;DHT22;40900;52.710;6.438;2023-02-26T13:20:01;8.80;90.10
55004;DHT22;40900;52.710;6.438;2023-02-26T13:22:38;8.50;90.00
55004;DHT22;40900;52.710;6.438;2023-02-26T13:27:58;8.90;91.10
55004;DHT22;40900;52.710;6.438;2023-02-26T13:30:33;9.10;91.30
55004;DHT22;40900;52.710;6.438;2023-02-26T13:33:00;9.10;90.80
55004;DHT22;40900;52.710;6.438;2023-02-26T13:35:36;9.10;90.80
55004;DHT22;40900;52.710;6.438;2023-02-26T13:38:34;8.80;90.40
55004;DHT22;40900;52.710;6.438;2023-02-26T13:41:14;8.90;91.10
55004;DHT22;40900;52.710;6.438;2023-02-26T13:46:50;9.10;91.50
55004;DHT22;40900;52.710;6.438;2023-02-26T13:49:26;8.90;91.20
55004;DHT22;40900;52.710;6.438;2023-02-26T13:51:56;8.80;91.70
55004;DHT22;40900;52.710;6.438;2023-02-26T13:57:50;8.60;92.10
55004;DHT22;40900;52.710;6.438;2023-02-26T14:00:00;8.60;91.40
55004;DHT22;40900;52.710;6.438;2023-02-26T14:02:45;8.60;91.80
55004;DHT22;40900;52.710;6.438;2023-02-26T14:05:39;8.70;91.50
55004;DHT22;40900;52.710;6.438;2023-02-26T14:11:03;8.70;91.20
55004;DHT22;40900;52.710;6.438;2023-02-26T14:13:38;8.80;91.70
55004;DHT22;40900;52.710;6.438;2023-02-26T14:16:26;8.90;92.00
55004;DHT22;40900;52.710;6.438;2023-02-26T14:18:52;9.00;92.20
55004;DHT22;40900;52.710;6.438;2023-02-26T14:21:35;8.80;91.70
55004;DHT22;40900;52.710;6.438;2023-02-26T14:26:37;8.60;91.30
55004;DHT22;40900;52.710;6.438;2023-02-26T14:29:13;8.40;92.00
55004;DHT22;40900;52.710;6.438;2023-02-26T14:32:11;8.40;91.90
55004;DHT22;40900;52.710;6.438;2023-02-26T14:35:02;8.30;92.70
55004;DHT22;40900;52.710;6.438;2023-02-26T14:37:29;8.30;92.20
55004;DHT22;40900;52.710;6.438;2023-02-26T14:40:04;8.20;92.30
55004;DHT22;40900;52.710;6.438;2023-02-26T14:42:50;8.20;91.90
55004;DHT22;40900;52.710;6.438;2023-02-26T14:45:39;8.20;92.20
55004;DHT22;40900;52.710;6.438;2023-02-26T14:48:10;8.10;92.10
55004;DHT22;40900;52.710;6.438;2023-02-26T14:56:26;8.10;94.40
55004;DHT22;40900;52.710;6.438;2023-02-26T14:59:39;8.10;94.10
55004;DHT22;40900;52.710;6.438;2023-02-26T15:02:15;8.10;94.80
55004;DHT22;40900;52.710;6.438;2023-02-26T15:23:05;7.50;97.70
55004;DHT22;40900;52.710;6.438;2023-02-26T15:25:37;7.40;98.00
55004;DHT22;40900;52.710;6.438;2023-02-26T15:28:05;7.40;98.50
55004;DHT22;40900;52.710;6.438;2023-02-26T15:30:32;7.40;98.20
55004;DHT22;40900;52.710;6.438;2023-02-26T15:33:03;7.30;98.30
55004;DHT22;40900;52.710;6.438;2023-02-26T15:35:30;7.40;98.50
55004;DHT22;40900;52.710;6.438;2023-02-26T15:37:59;7.40;97.80
55004;DHT22;40900;52.710;6.438;2023-02-26T15:40:28;7.40;97.70
55004;DHT22;40900;52.710;6.438;2023-02-26T15:42:56;7.30;97.40
55004;DHT22;40900;52.710;6.438;2023-02-26T15:45:35;7.10;97.90
55004;DHT22;40900;52.710;6.438;2023-02-26T15:48:26;7.20;97.80
55004;DHT22;40900;52.710;6.438;2023-02-26T15:50:57;7.00;98.10
55004;DHT22;40900;52.710;6.438;2023-02-26T15:53:33;6.90;98.20
55004;DHT22;40900;52.710;6.438;2023-02-26T15:56:00;7.10;98.40
55004;DHT22;40900;52.710;6.438;2023-02-26T15:58:39;6.90;97.70
55004;DHT22;40900;52.710;6.438;2023-02-26T16:01:17;7.00;98.20
55004;DHT22;40900;52.710;6.438;2023-02-26T16:03:44;6.70;98.10
55004;DHT22;40900;52.710;6.438;2023-02-26T16:06:24;6.70;98.30
55004;DHT22;40900;52.710;6.438;2023-02-26T16:08:52;6.60;98.40
55004;DHT22;40900;52.710;6.438;2023-02-26T16:11:19;6.60;98.60
55004;DHT22;40900;52.710;6.438;2023-02-26T16:13:49;6.50;99.00
55004;DHT22;40900;52.710;6.438;2023-02-26T16:16:40;6.40;98.20
55004;DHT22;40900;52.710;6.438;2023-02-26T16:19:11;6.30;98.10
55004;DHT22;40900;52.710;6.438;2023-02-26T16:21:38;6.20;98.70
55004;DHT22;40900;52.710;6.438;2023-02-26T16:24:08;6.10;98.80
55004;DHT22;40900;52.710;6.438;2023-02-26T16:26:52;6.10;99.10
55004;DHT22;40900;52.710;6.438;2023-02-26T16:29:23;6.10;99.40
55004;DHT22;40900;52.710;6.438;2023-02-26T16:31:55;6.10;99.60
55004;DHT22;40900;52.710;6.438;2023-02-26T16:34:48;6.00;99.80
55004;DHT22;40900;52.710;6.438;2023-02-26T16:37:33;6.00;99.90
55004;DHT22;40900;52.710;6.438;2023-02-26T16:45:31;5.80;99.90
55004;DHT22;40900;52.710;6.438;2023-02-26T16:48:27;5.70;99.90
55004;DHT22;40900;52.710;6.438;2023-02-26T16:51:15;5.60;99.90
55004;DHT22;40900;52.710;6.438;2023-02-26T16:53:43;5.60;99.90
55004;DHT22;40900;52.710;6.438;2023-02-26T16:56:14;5.50;99.90
55004;DHT22;40900;52.710;6.438;2023-02-26T16:58:50;5.40;99.90
55004;DHT22;40900;52.710;6.438;2023-02-26T17:01:19;5.40;99.90
55004;DHT22;40900;52.710;6.438;2023-02-26T17:03:56;5.30;99.90
55004;DHT22;40900;52.710;6.438;2023-02-26T17:06:26;5.30;99.90
55004;DHT22;40900;52.710;6.438;2023-02-26T17:08:59;5.20;99.90
55004;DHT22;40900;52.710;6.438;2023-02-26T17:16:35;5.20;99.90
55004;DHT22;40900;52.710;6.438;2023-02-26T17:19:00;5.10;99.90
55004;DHT22;40900;52.710;6.438;2023-02-26T17:21:27;5.10;99.90
55004;DHT22;40900;52.710;6.438;2023-02-26T17:23:54;5.10;99.90
55004;DHT22;40900;52.710;6.438;2023-02-26T17:26:20;5.10;99.90
55004;DHT22;40900;52.710;6.438;2023-02-26T17:28:46;5.00;99.90
55004;DHT22;40900;52.710;6.438;2023-02-26T17:31:12;5.00;99.90
55004;DHT22;40900;52.710;6.438;2023-02-26T17:33:40;5.00;99.90
55004;DHT22;40900;52.710;6.438;2023-02-26T17:36:12;5.00;99.90
55004;DHT22;40900;52.710;6.438;2023-02-26T17:38:39;5.00;99.90
55004;DHT22;40900;52.710;6.438;2023-02-26T17:41:08;5.00;99.90
55004;DHT22;40900;52.710;6.438;2023-02-26T17:43:34;5.00;99.90
55004;DHT22;40900;52.710;6.438;2023-02-26T17:45:59;5.00;99.90
55004;DHT22;40900;52.710;6.438;2023-02-26T17:48:25;5.00;99.90
55004;DHT22;40900;52.710;6.438;2023-02-26T17:50:53;4.90;99.90
55004;DHT22;40900;52.710;6.438;2023-02-26T17:53:21;4.90;99.90
55004;DHT22;40900;52.710;6.438;2023-02-26T17:55:49;4.80;99.90
55004;DHT22;40900;52.710;6.438;2023-02-26T17:58:35;4.80;99.90
55004;DHT22;40900;52.710;6.438;2023-02-26T18:01:01;4.80;99.90
55004;DHT22;40900;52.710;6.438;2023-02-26T18:03:28;4.80;99.90
55004;DHT22;40900;52.710;6.438;2023-02-26T18:05:55;4.70;99.90
55004;DHT22;40900;52.710;6.438;2023-02-26T18:08:31;4.70;99.90
55004;DHT22;40900;52.710;6.438;2023-02-26T18:10:59;4.70;99.90
55004;DHT22;40900;52.710;6.438;2023-02-26T18:13:26;4.60;99.90
55004;DHT22;40900;52.710;6.438;2023-02-26T18:15:53;4.70;99.90
55004;DHT22;40900;52.710;6.438;2023-02-26T18:18:21;4.60;99.90
55004;DHT22;40900;52.710;6.438;2023-02-26T18:20:47;4.70;99.90
55004;DHT22;40900;52.710;6.438;2023-02-26T18:23:13;4.60;99.90
55004;DHT22;40900;52.710;6.438;2023-02-26T18:25:42;4.60;99.90
55004;DHT22;40900;52.710;6.438;2023-02-26T18:28:23;4.60;99.90
55004;DHT22;40900;52.710;6.438;2023-02-26T18:30:49;4.60;99.90
55004;DHT22;40900;52.710;6.438;2023-02-26T18:33:17;4.60;99.90
55004;DHT22;40900;52.710;6.438;2023-02-26T18:35:54;4.60;99.90
55004;DHT22;40900;52.710;6.438;2023-02-26T18:38:26;4.70;99.90
55004;DHT22;40900;52.710;6.438;2023-02-26T18:40:52;4.70;99.90
55004;DHT22;40900;52.710;6.438;2023-02-26T18:43:18;4.60;99.90
55004;DHT22;40900;52.710;6.438;2023-02-26T18:45:46;4.60;99.90
55004;DHT22;40900;52.710;6.438;2023-02-26T18:48:15;4.60;99.90
55004;DHT22;40900;52.710;6.438;2023-02-26T18:50:41;4.60;99.90
55004;DHT22;40900;52.710;6.438;2023-02-26T18:53:08;4.60;99.90
55004;DHT22;40900;52.710;6.438;2023-02-26T18:55:34;4.60;99.90
55004;DHT22;40900;52.710;6.438;2023-02-26T18:57:59;4.70;99.90
55004;DHT22;40900;52.710;6.438;2023-02-26T19:00:25;4.70;99.90
55004;DHT22;40900;52.710;6.438;2023-02-26T19:02:53;4.60;99.90
55004;DHT22;40900;52.710;6.438;2023-02-26T19:05:20;4.70;99.90